createdAt,value
2022-08-25T00:00:02.812Z,545.9
2022-08-25T00:01:05.593Z,545.7
2022-08-25T00:02:10.894Z,545.9
2022-08-25T00:03:13.660Z,545.6
2022-08-25T00:04:15.274Z,546
2022-08-25T00:05:18.965Z,545.7
2022-08-25T00:06:20.996Z,545.2
2022-08-25T00:07:22.682Z,545.2
2022-08-25T00:08:24.360Z,545
2022-08-25T00:09:26.010Z,544.9
2022-08-25T00:10:27.639Z,545.3
2022-08-25T00:11:29.338Z,545.4
2022-08-25T00:12:31.045Z,545.9
2022-08-25T00:13:32.630Z,545.9
2022-08-25T00:14:34.282Z,546.1
2022-08-25T00:15:36.508Z,545.8
2022-08-25T00:16:38.396Z,545.9
2022-08-25T00:17:40.143Z,545.8
2022-08-25T00:18:41.829Z,545.9
2022-08-25T00:19:43.406Z,545.9
2022-08-25T00:20:49.685Z,546.1
2022-08-25T00:21:51.354Z,546.1
2022-08-25T00:22:53.076Z,546.2
2022-08-25T00:23:54.632Z,546.5
2022-08-25T00:24:56.323Z,546.6
2022-08-25T00:25:58.012Z,546.9
2022-08-25T00:26:59.755Z,546.9
2022-08-25T00:28:09.354Z,547.1
2022-08-25T00:29:11.053Z,547
2022-08-25T00:30:16.552Z,547.1
2022-08-25T00:31:18.721Z,547
2022-08-25T00:32:20.550Z,546.8
2022-08-25T00:33:22.246Z,547
2022-08-25T00:34:23.910Z,547.1
2022-08-25T00:35:25.555Z,547
2022-08-25T00:36:27.153Z,546.5
2022-08-25T00:37:28.805Z,546.5
2022-08-25T00:38:30.756Z,546.2
2022-08-25T00:39:32.357Z,546
2022-08-25T00:40:34.047Z,545.5
2022-08-25T00:41:35.751Z,545.5
2022-08-25T00:42:37.442Z,545.4
2022-08-25T00:43:38.996Z,545.5
2022-08-25T00:44:40.629Z,545.7
2022-08-25T00:45:42.374Z,545.3
2022-08-25T00:46:44.538Z,544.9
2022-08-25T00:47:46.282Z,545
2022-08-25T00:48:47.832Z,544.3
2022-08-25T00:49:49.469Z,544.7
2022-08-25T00:50:51.420Z,544.6
2022-08-25T00:51:53.009Z,545.3
2022-08-25T00:52:54.571Z,545.5
2022-08-25T00:53:56.199Z,545.8
2022-08-25T00:54:57.773Z,545.7
2022-08-25T00:55:59.689Z,545.9
2022-08-25T00:57:01.368Z,546.2
2022-08-25T00:58:03.530Z,546
2022-08-25T00:59:05.406Z,546.3
2022-08-25T01:00:07.046Z,546.5
2022-08-25T01:01:09.082Z,547
2022-08-25T01:02:14.828Z,547.1
2022-08-25T01:03:16.726Z,547.1
2022-08-25T01:04:18.297Z,547.3
2022-08-25T01:05:20.084Z,547.3
2022-08-25T01:06:21.701Z,547.3
2022-08-25T01:07:23.345Z,547.6
2022-08-25T01:08:32.416Z,547.9
2022-08-25T01:09:34.195Z,548.1
2022-08-25T01:10:35.801Z,548.2
2022-08-25T01:11:37.454Z,548.1
2022-08-25T01:12:39.211Z,548
2022-08-25T01:13:43.753Z,547.7
2022-08-25T01:14:45.441Z,547.8
2022-08-25T01:15:47.659Z,547.8
2022-08-25T01:16:54.521Z,548.1
2022-08-25T01:17:56.295Z,548.1
2022-08-25T01:18:58.095Z,548.1
2022-08-25T01:19:59.759Z,548.7
2022-08-25T01:21:01.425Z,549.1
2022-08-25T01:22:03.139Z,549.1
2022-08-25T01:23:04.849Z,548.9
2022-08-25T01:24:06.902Z,548.9
2022-08-25T01:25:08.935Z,549.2
2022-08-25T01:26:10.602Z,549.1
2022-08-25T01:27:12.219Z,549.3
2022-08-25T01:28:13.946Z,549
2022-08-25T01:29:15.763Z,548.8
2022-08-25T01:30:17.439Z,548.9
2022-08-25T01:31:24.917Z,548.2
2022-08-25T01:32:26.799Z,548.1
2022-08-25T01:33:28.476Z,547.9
2022-08-25T01:34:30.286Z,548
2022-08-25T01:35:31.965Z,548.1
2022-08-25T01:36:33.661Z,548.1
2022-08-25T01:37:35.356Z,548
2022-08-25T01:38:36.945Z,547.7
2022-08-25T01:39:38.685Z,547.8
2022-08-25T01:40:40.290Z,548
2022-08-25T01:41:41.870Z,547.7
2022-08-25T01:42:43.422Z,548.2
2022-08-25T01:43:45.259Z,548.2
2022-08-25T01:44:46.996Z,548.1
2022-08-25T01:45:49.219Z,548.1
2022-08-25T01:46:50.894Z,547.8
2022-08-25T01:47:52.435Z,547.7
2022-08-25T01:48:54.136Z,547.5
2022-08-25T01:49:55.895Z,547.8
2022-08-25T01:50:57.581Z,547.9
2022-08-25T01:51:59.343Z,548.1
2022-08-25T01:53:00.986Z,548.4
2022-08-25T01:54:02.600Z,548.5
2022-08-25T01:55:04.345Z,548.7
2022-08-25T01:56:10.431Z,548.8
2022-08-25T01:57:11.980Z,548.7
2022-08-25T01:58:13.656Z,548.8
2022-08-25T01:59:24.787Z,548.8
2022-08-25T02:00:26.477Z,549.1
2022-08-25T02:01:28.566Z,549.3
2022-08-25T02:02:34.467Z,549.2
2022-08-25T02:03:37.372Z,549.7
2022-08-25T02:04:44.890Z,549.5
2022-08-25T02:05:49.473Z,549.7
2022-08-25T02:06:51.173Z,549.7
2022-08-25T02:07:52.741Z,550
2022-08-25T02:08:54.357Z,549.5
2022-08-25T02:10:03.867Z,549.6
2022-08-25T02:11:05.716Z,549.6
2022-08-25T02:12:07.535Z,549.8
2022-08-25T02:13:09.094Z,550
2022-08-25T02:14:11.182Z,549.8
2022-08-25T02:15:12.859Z,550.3
2022-08-25T02:16:14.792Z,550
2022-08-25T02:17:16.476Z,550.2
2022-08-25T02:18:18.124Z,550.1
2022-08-25T02:19:19.823Z,550.6
2022-08-25T02:20:21.389Z,550.3
2022-08-25T02:21:23.116Z,550.2
2022-08-25T02:22:24.810Z,550.2
2022-08-25T02:23:26.619Z,550.3
2022-08-25T02:24:28.334Z,550.7
2022-08-25T02:25:29.883Z,551
2022-08-25T02:26:31.611Z,550.5
2022-08-25T02:27:33.212Z,550.4
2022-08-25T02:28:34.915Z,550.3
2022-08-25T02:29:36.584Z,551
2022-08-25T02:30:38.603Z,550.3
2022-08-25T02:31:40.466Z,550.4
2022-08-25T02:32:42.162Z,550.1
2022-08-25T02:33:43.822Z,550
2022-08-25T02:34:45.467Z,549.7
2022-08-25T02:35:47.027Z,549.7
2022-08-25T02:36:48.593Z,549.9
2022-08-25T02:37:50.138Z,549.8
2022-08-25T02:38:53.545Z,550.1
2022-08-25T02:39:55.514Z,549.7
2022-08-25T02:40:57.161Z,550.1
2022-08-25T02:41:58.850Z,549.8
2022-08-25T02:43:00.473Z,550
2022-08-25T02:44:02.124Z,550
2022-08-25T02:45:03.789Z,550
2022-08-25T02:46:08.931Z,549.8
2022-08-25T02:47:11.616Z,549.7
2022-08-25T02:48:13.444Z,549.8
2022-08-25T02:49:15.155Z,549.5
2022-08-25T02:50:16.866Z,549.7
2022-08-25T02:51:18.673Z,549.4
2022-08-25T02:52:20.375Z,549.1
2022-08-25T02:53:22.017Z,549.3
2022-08-25T02:54:23.691Z,549.2
2022-08-25T02:55:25.490Z,549.2
2022-08-25T02:56:27.324Z,549.5
2022-08-25T02:57:28.873Z,549.3
2022-08-25T02:58:30.431Z,549.2
2022-08-25T02:59:32.127Z,549.3
2022-08-25T03:00:34.276Z,548.9
2022-08-25T03:01:36.281Z,549.1
2022-08-25T03:02:38.074Z,548.9
2022-08-25T03:03:40.295Z,548.9
2022-08-25T03:04:44.323Z,548.9
2022-08-25T03:05:46.169Z,548.8
2022-08-25T03:06:47.971Z,548.3
2022-08-25T03:07:49.702Z,548.6
2022-08-25T03:08:54.404Z,548.6
2022-08-25T03:09:55.963Z,548.3
2022-08-25T03:10:57.523Z,548.4
2022-08-25T03:11:59.192Z,548.7
2022-08-25T03:13:01.981Z,548.5
2022-08-25T03:14:03.589Z,548.8
2022-08-25T03:15:13.629Z,549
2022-08-25T03:16:15.795Z,549.4
2022-08-25T03:17:17.433Z,549.1
2022-08-25T03:18:19.552Z,549.3
2022-08-25T03:19:21.110Z,549.1
2022-08-25T03:20:22.978Z,548.7
2022-08-25T03:21:24.668Z,548.7
2022-08-25T03:22:28.729Z,548.4
2022-08-25T03:23:30.387Z,548.4
2022-08-25T03:24:32.063Z,548.3
2022-08-25T03:25:33.793Z,548.3
2022-08-25T03:26:35.373Z,548
2022-08-25T03:27:37.006Z,547.8
2022-08-25T03:28:38.588Z,547.8
2022-08-25T03:29:40.284Z,547.7
2022-08-25T03:30:41.982Z,547.7
2022-08-25T03:31:43.917Z,548
2022-08-25T03:32:45.604Z,547.8
2022-08-25T03:33:47.337Z,548
2022-08-25T03:34:49.028Z,547.9
2022-08-25T03:35:50.591Z,547.8
2022-08-25T03:36:52.154Z,547.8
2022-08-25T03:37:53.745Z,547.9
2022-08-25T03:38:55.567Z,548.3
2022-08-25T03:39:57.743Z,548.1
2022-08-25T03:40:59.467Z,548.1
2022-08-25T03:42:01.153Z,547.8
2022-08-25T03:43:02.777Z,548
2022-08-25T03:44:04.600Z,548.1
2022-08-25T03:45:06.260Z,548.3
2022-08-25T03:46:08.360Z,548.4
2022-08-25T03:47:10.157Z,548.8
2022-08-25T03:48:11.773Z,548.8
2022-08-25T03:49:13.507Z,549.2
2022-08-25T03:50:15.162Z,549.3
2022-08-25T03:51:16.861Z,549.6
2022-08-25T03:52:18.505Z,549.9
2022-08-25T03:53:20.273Z,549.6
2022-08-25T03:54:22.018Z,549.6
2022-08-25T03:55:23.560Z,549.5
2022-08-25T03:56:25.209Z,549.2
2022-08-25T03:57:27.293Z,549.1
2022-08-25T03:58:28.939Z,548.6
2022-08-25T03:59:30.564Z,548.8
2022-08-25T04:00:32.263Z,548.7
2022-08-25T04:01:34.545Z,548.6
2022-08-25T04:02:36.632Z,548.7
2022-08-25T04:03:38.342Z,548.5
2022-08-25T04:04:40.090Z,548.4
2022-08-25T04:05:41.817Z,548.2
2022-08-25T04:06:43.560Z,548.5
2022-08-25T04:07:45.250Z,548.4
2022-08-25T04:08:46.928Z,548.8
2022-08-25T04:09:48.574Z,548.7
2022-08-25T04:10:50.393Z,548.9
2022-08-25T04:11:53.963Z,548.6
2022-08-25T04:12:55.556Z,549.5
2022-08-25T04:13:57.356Z,549.6
2022-08-25T04:14:58.954Z,549.7
2022-08-25T04:16:00.757Z,549.5
2022-08-25T04:17:02.523Z,549.3
2022-08-25T04:18:04.953Z,549.6
2022-08-25T04:19:06.796Z,549.7
2022-08-25T04:20:08.476Z,549.8
2022-08-25T04:21:10.022Z,550
2022-08-25T04:22:13.694Z,549.5
2022-08-25T04:23:15.421Z,550.2
2022-08-25T04:24:16.973Z,550
2022-08-25T04:25:18.561Z,550
2022-08-25T04:26:20.116Z,550.2
2022-08-25T04:27:21.670Z,550.1
2022-08-25T04:28:23.515Z,550
2022-08-25T04:29:25.314Z,550.3
2022-08-25T04:30:27.156Z,550.2
2022-08-25T04:31:29.182Z,549.8
2022-08-25T04:32:30.883Z,549.9
2022-08-25T04:33:32.591Z,549.7
2022-08-25T04:34:34.283Z,549.5
2022-08-25T04:35:35.861Z,549.5
2022-08-25T04:36:37.490Z,549.9
2022-08-25T04:37:39.136Z,549.5
2022-08-25T04:38:40.816Z,549.7
2022-08-25T04:39:42.504Z,549.3
2022-08-25T04:40:46.972Z,548.9
2022-08-25T04:41:48.704Z,549.1
2022-08-25T04:42:50.409Z,548.5
2022-08-25T04:43:51.978Z,548.7
2022-08-25T04:44:53.576Z,548.9
2022-08-25T04:45:55.644Z,548.4
2022-08-25T04:46:57.378Z,548.4
2022-08-25T04:47:59.086Z,548.6
2022-08-25T04:49:00.628Z,548.9
2022-08-25T04:50:02.174Z,548.5
2022-08-25T04:51:03.731Z,548.5
2022-08-25T04:52:15.105Z,548.6
2022-08-25T04:53:16.872Z,548.3
2022-08-25T04:54:18.621Z,548.4
2022-08-25T04:55:20.213Z,548.2
2022-08-25T04:56:24.662Z,548.2
2022-08-25T04:57:26.319Z,547.8
2022-08-25T04:58:28.072Z,548.3
2022-08-25T04:59:31.200Z,548.1
2022-08-25T05:00:32.913Z,548
2022-08-25T05:01:35.950Z,548.3
2022-08-25T05:02:37.791Z,548.5
2022-08-25T05:03:39.383Z,548.3
2022-08-25T05:04:41.262Z,548.4
2022-08-25T05:05:43.014Z,548.8
2022-08-25T05:06:45.499Z,548.6
2022-08-25T05:07:47.122Z,548.5
2022-08-25T05:08:48.744Z,548.3
2022-08-25T05:09:50.302Z,548.4
2022-08-25T05:10:51.893Z,548.5
2022-08-25T05:11:54.088Z,548.6
2022-08-25T05:12:55.806Z,548.4
2022-08-25T05:13:58.088Z,548.9
2022-08-25T05:14:59.659Z,548.9
2022-08-25T05:16:03.290Z,549.5
2022-08-25T05:17:05.044Z,550.1
2022-08-25T05:18:07.715Z,550.2
2022-08-25T05:19:09.412Z,550.3
2022-08-25T05:20:11.062Z,550.3
2022-08-25T05:21:15.903Z,550.3
2022-08-25T05:22:17.767Z,550.5
2022-08-25T05:23:19.408Z,550.6
2022-08-25T05:24:20.963Z,550.8
2022-08-25T05:25:22.689Z,550.5
2022-08-25T05:26:25.567Z,550.5
2022-08-25T05:27:27.141Z,550.4
2022-08-25T05:28:29.278Z,550.6
2022-08-25T05:29:31.907Z,550.7
2022-08-25T05:30:33.450Z,550.5
2022-08-25T05:31:50.541Z,550.3
2022-08-25T05:32:52.546Z,550.4
2022-08-25T05:33:54.331Z,549.9
2022-08-25T05:34:56.142Z,550
2022-08-25T05:35:57.755Z,549.9
2022-08-25T05:37:00.459Z,550.1
2022-08-25T05:38:02.516Z,550.6
2022-08-25T05:39:04.254Z,550.4
2022-08-25T05:40:06.322Z,550.4
2022-08-25T05:41:08.106Z,550
2022-08-25T05:42:09.924Z,549.9
2022-08-25T05:43:11.560Z,549.9
2022-08-25T05:44:17.996Z,550
2022-08-25T05:45:21.676Z,549.7
2022-08-25T05:46:23.562Z,549.8
2022-08-25T05:47:25.172Z,549.9
2022-08-25T05:48:26.982Z,549.8
2022-08-25T05:49:28.636Z,550.1
2022-08-25T05:50:30.186Z,549.8
2022-08-25T05:51:31.916Z,549.7
2022-08-25T05:52:33.470Z,550.2
2022-08-25T05:53:37.774Z,549.9
2022-08-25T05:54:39.462Z,550.1
2022-08-25T05:55:41.016Z,549.8
2022-08-25T05:56:42.759Z,549.7
2022-08-25T05:57:44.390Z,549.3
2022-08-25T05:58:46.111Z,549.2
2022-08-25T05:59:47.677Z,549.1
2022-08-25T06:00:49.625Z,549.2
2022-08-25T06:01:51.380Z,549.1
2022-08-25T06:02:53.077Z,549.4
2022-08-25T06:03:55.487Z,549.3
2022-08-25T06:04:57.176Z,549.2
2022-08-25T06:05:58.948Z,549.6
2022-08-25T06:07:00.604Z,549.7
2022-08-25T06:08:02.546Z,549.5
2022-08-25T06:09:04.311Z,549.6
2022-08-25T06:10:05.903Z,549.5
2022-08-25T06:11:07.581Z,549.5
2022-08-25T06:12:09.644Z,549.5
2022-08-25T06:13:12.703Z,549.8
2022-08-25T06:14:14.472Z,549.4
2022-08-25T06:15:16.080Z,549.6
2022-08-25T06:16:17.962Z,549.8
2022-08-25T06:17:19.692Z,549.7
2022-08-25T06:18:21.424Z,549.8
2022-08-25T06:19:23.513Z,549.6
2022-08-25T06:20:26.429Z,549.9
2022-08-25T06:21:28.167Z,550
2022-08-25T06:22:29.844Z,549.9
2022-08-25T06:23:31.456Z,550.1
2022-08-25T06:24:33.005Z,550.1
2022-08-25T06:25:34.716Z,550.4
2022-08-25T06:26:36.324Z,550.4
2022-08-25T06:27:37.876Z,550.2
2022-08-25T06:28:39.547Z,550.2
2022-08-25T06:29:42.435Z,550.3
2022-08-25T06:30:44.056Z,550.1
2022-08-25T06:31:46.000Z,550.2
2022-08-25T06:32:47.700Z,550.3
2022-08-25T06:33:49.365Z,550
2022-08-25T06:34:50.986Z,550.3
2022-08-25T06:35:52.711Z,550.3
2022-08-25T06:36:54.253Z,550.5
2022-08-25T06:37:55.942Z,550.2
2022-08-25T06:38:57.693Z,550.3
2022-08-25T06:39:59.809Z,550.4
2022-08-25T06:41:01.607Z,550.6
2022-08-25T06:42:03.378Z,550.5
2022-08-25T06:43:04.932Z,550.4
2022-08-25T06:44:06.543Z,550.3
2022-08-25T06:45:08.238Z,550
2022-08-25T06:46:09.904Z,550.1
2022-08-25T06:47:11.919Z,549.9
2022-08-25T06:48:13.604Z,549.8
2022-08-25T06:49:15.386Z,549.5
2022-08-25T06:50:17.001Z,549.7
2022-08-25T06:51:18.815Z,549.8
2022-08-25T06:52:20.385Z,550.2
2022-08-25T06:53:22.075Z,550.2
2022-08-25T06:54:23.830Z,549.8
2022-08-25T06:55:25.643Z,549.9
2022-08-25T06:56:27.523Z,549.4
2022-08-25T06:57:29.545Z,549.7
2022-08-25T06:58:31.359Z,549.6
2022-08-25T06:59:33.172Z,549.7
2022-08-25T07:00:35.133Z,549.6
2022-08-25T07:01:37.687Z,549.8
2022-08-25T07:02:40.023Z,549.5
2022-08-25T07:03:42.494Z,549.4
2022-08-25T07:04:44.104Z,549.7
2022-08-25T07:05:45.719Z,549.4
2022-08-25T07:06:47.557Z,549.6
2022-08-25T07:07:49.258Z,550
2022-08-25T07:08:50.974Z,550.5
2022-08-25T07:09:52.557Z,550.5
2022-08-25T07:10:55.508Z,549.9
2022-08-25T07:11:57.214Z,550
2022-08-25T07:12:58.929Z,549.9
2022-08-25T07:14:00.611Z,549.8
2022-08-25T07:15:21.504Z,549.9
2022-08-25T07:16:31.681Z,549.7
2022-08-25T07:17:34.319Z,550
2022-08-25T07:18:36.087Z,550.3
2022-08-25T07:19:37.827Z,550.3
2022-08-25T07:20:39.498Z,550.5
2022-08-25T07:21:41.238Z,550
2022-08-25T07:22:42.938Z,550.3
2022-08-25T07:23:44.768Z,550
2022-08-25T07:24:46.554Z,550.3
2022-08-25T07:25:48.226Z,550.1
2022-08-25T07:26:49.872Z,549.9
2022-08-25T07:27:59.331Z,550.6
2022-08-25T07:29:01.120Z,550.2
2022-08-25T07:30:04.881Z,550.3
2022-08-25T07:31:11.040Z,550.2
2022-08-25T07:32:12.982Z,550.4
2022-08-25T07:33:14.976Z,550
2022-08-25T07:34:17.437Z,550
2022-08-25T07:35:24.281Z,550.5
2022-08-25T07:36:28.373Z,550.5
2022-08-25T07:37:50.320Z,550.5
2022-08-25T07:38:52.077Z,550.5
2022-08-25T07:39:54.308Z,550.6
2022-08-25T07:40:57.632Z,550.8
2022-08-25T07:41:59.764Z,550.9
2022-08-25T07:43:01.616Z,550.9
2022-08-25T07:44:03.186Z,550.8
2022-08-25T07:45:07.803Z,551.3
2022-08-25T07:46:09.842Z,551
2022-08-25T07:47:11.521Z,550.9
2022-08-25T07:48:13.910Z,551.1
2022-08-25T07:49:23.699Z,550.7
2022-08-25T07:50:25.425Z,550.6
2022-08-25T07:51:28.197Z,550.6
2022-08-25T07:52:30.398Z,550.7
2022-08-25T07:53:32.119Z,550.5
2022-08-25T07:54:38.600Z,550.5
2022-08-25T07:55:40.315Z,550.1
2022-08-25T07:56:41.959Z,550.1
2022-08-25T07:57:43.566Z,550.1
2022-08-25T07:58:45.624Z,549.8
2022-08-25T07:59:47.355Z,549.8
2022-08-25T08:00:51.220Z,550.1
2022-08-25T08:01:53.174Z,550.3
2022-08-25T08:02:55.393Z,550.3
2022-08-25T08:04:04.053Z,550.2
2022-08-25T08:05:10.081Z,550.6
2022-08-25T08:06:11.829Z,550.6
2022-08-25T08:07:13.381Z,550.8
2022-08-25T08:08:14.943Z,550.9
2022-08-25T08:09:16.817Z,550.9
2022-08-25T08:11:05.809Z,550.9
2022-08-25T08:12:08.577Z,550.9
2022-08-25T08:13:17.826Z,550.8
2022-08-25T08:14:20.207Z,551
2022-08-25T08:15:22.728Z,551.1
2022-08-25T08:16:24.749Z,551.5
2022-08-25T08:17:26.572Z,551.6
2022-08-25T08:18:28.242Z,551.6
2022-08-25T08:19:30.045Z,552.1
2022-08-25T08:20:43.650Z,551.7
2022-08-25T08:21:46.711Z,551.8
2022-08-25T08:22:48.347Z,552
2022-08-25T08:23:50.075Z,552.2
2022-08-25T08:24:57.265Z,552.2
2022-08-25T08:25:59.702Z,552.3
2022-08-25T08:27:01.429Z,552.6
2022-08-25T08:28:03.570Z,552.7
2022-08-25T08:29:05.600Z,552.7
2022-08-25T08:30:07.254Z,552.6
2022-08-25T08:31:12.374Z,552.7
2022-08-25T08:32:15.173Z,552.6
2022-08-25T08:33:16.808Z,553
2022-08-25T08:34:18.415Z,552.9
2022-08-25T08:35:19.980Z,552.9
2022-08-25T08:36:25.968Z,552.8
2022-08-25T08:37:28.139Z,553
2022-08-25T08:38:29.860Z,553.1
2022-08-25T08:39:33.142Z,552.8
2022-08-25T08:40:35.621Z,553
2022-08-25T08:42:12.892Z,552.9
2022-08-25T08:43:19.575Z,552.8
2022-08-25T08:44:22.525Z,552.7
2022-08-25T08:45:24.639Z,552.9
2022-08-25T08:46:27.452Z,552.6
2022-08-25T08:47:29.253Z,553.4
2022-08-25T08:48:31.037Z,553.4
2022-08-25T08:49:32.625Z,553.1
2022-08-25T08:50:35.458Z,553.5
2022-08-25T08:51:37.515Z,553.6
2022-08-25T08:52:39.281Z,553.4
2022-08-25T08:53:42.572Z,553.1
2022-08-25T08:54:45.322Z,553.3
2022-08-25T08:55:53.464Z,553.5
2022-08-25T08:56:57.073Z,553
2022-08-25T08:57:59.158Z,552.9
2022-08-25T08:59:06.847Z,552.8
2022-08-25T09:00:08.490Z,553.2
2022-08-25T09:01:10.309Z,552.9
2022-08-25T09:02:14.306Z,552.9
2022-08-25T09:03:42.694Z,552.9
2022-08-25T09:04:45.558Z,552.9
2022-08-25T09:05:47.785Z,553
2022-08-25T09:06:49.583Z,553
2022-08-25T09:07:56.668Z,552.9
2022-08-25T09:08:59.096Z,552.8
2022-08-25T09:10:01.087Z,552.9
2022-08-25T09:11:03.620Z,553.2
2022-08-25T09:12:05.358Z,553.3
2022-08-25T09:13:15.850Z,553.3
2022-08-25T09:14:17.620Z,553.2
2022-08-25T09:15:20.540Z,553.1
2022-08-25T09:16:35.241Z,553
2022-08-25T09:17:37.690Z,553.5
2022-08-25T09:18:53.022Z,553
2022-08-25T09:19:55.007Z,553.2
2022-08-25T09:20:56.883Z,553.2
2022-08-25T09:21:58.631Z,553.3
2022-08-25T09:23:00.394Z,553.5
2022-08-25T09:24:03.964Z,553.4
2022-08-25T09:25:09.397Z,553.8
2022-08-25T09:26:11.197Z,554.1
2022-08-25T09:27:12.814Z,554.2
2022-08-25T09:28:14.508Z,554.2
2022-08-25T09:29:17.562Z,553.9
2022-08-25T09:30:20.471Z,554.2
2022-08-25T09:31:30.233Z,554.4
2022-08-25T09:32:32.471Z,554.3
2022-08-25T09:33:36.288Z,554.5
2022-08-25T09:34:38.111Z,554.5
2022-08-25T09:35:40.644Z,554.4
2022-08-25T09:36:42.498Z,554.1
2022-08-25T09:37:44.937Z,554.1
2022-08-25T09:38:46.759Z,553.9
2022-08-25T09:39:48.752Z,554
2022-08-25T09:40:51.465Z,554.2
2022-08-25T09:41:53.216Z,554.4
2022-08-25T09:42:59.293Z,554.6
2022-08-25T09:44:00.908Z,555
2022-08-25T09:45:02.653Z,554.8
2022-08-25T09:46:04.840Z,554.6
2022-08-25T09:47:08.844Z,554.3
2022-08-25T09:48:10.991Z,554.3
2022-08-25T09:49:12.628Z,554.5
2022-08-25T09:50:19.581Z,554.4
2022-08-25T09:51:21.461Z,555
2022-08-25T09:52:25.943Z,554.5
2022-08-25T09:53:27.962Z,554.5
2022-08-25T09:54:48.177Z,554.5
2022-08-25T09:56:01.017Z,554.9
2022-08-25T09:57:03.353Z,554.3
2022-08-25T09:58:10.234Z,554.6
2022-08-25T09:59:16.124Z,554.1
2022-08-25T10:00:17.712Z,554.4
2022-08-25T10:01:23.599Z,553.9
2022-08-25T10:02:27.327Z,554
2022-08-25T10:03:37.181Z,554.4
2022-08-25T10:04:40.991Z,554.2
2022-08-25T10:05:44.366Z,554.1
2022-08-25T10:06:46.401Z,554.2
2022-08-25T10:07:53.004Z,554.5
2022-08-25T10:08:54.628Z,554.2
2022-08-25T10:09:56.295Z,553.9
2022-08-25T10:10:58.221Z,554.1
2022-08-25T10:12:00.182Z,554.3
2022-08-25T10:13:06.977Z,554
2022-08-25T10:14:08.997Z,554.8
2022-08-25T10:15:10.673Z,554.7
2022-08-25T10:16:30.926Z,554.9
2022-08-25T10:17:35.535Z,555
2022-08-25T10:18:37.109Z,554.6
2022-08-25T10:19:38.746Z,554.3
2022-08-25T10:20:46.379Z,554.5
2022-08-25T10:21:49.870Z,554.6
2022-08-25T10:22:51.839Z,554.7
2022-08-25T10:23:53.636Z,554.5
2022-08-25T10:24:56.577Z,554.5
2022-08-25T10:26:05.724Z,554.7
2022-08-25T10:27:07.353Z,554.6
2022-08-25T10:28:09.076Z,554.6
2022-08-25T10:29:10.741Z,554.9
2022-08-25T10:30:12.612Z,555.5
2022-08-25T10:31:14.692Z,555.3
2022-08-25T10:32:16.589Z,555.5
2022-08-25T10:33:19.054Z,555.6
2022-08-25T10:34:20.909Z,555.9
2022-08-25T10:35:24.686Z,556.1
2022-08-25T10:36:26.555Z,556.2
2022-08-25T10:37:33.595Z,556.4
2022-08-25T10:38:37.111Z,556.5
2022-08-25T10:39:41.427Z,556.3
2022-08-25T10:40:44.289Z,556.3
2022-08-25T10:41:46.690Z,556.5
2022-08-25T10:42:48.270Z,556.5
2022-08-25T10:43:49.842Z,556.3
2022-08-25T10:44:51.396Z,556.7
2022-08-25T10:45:55.302Z,556.8
2022-08-25T10:47:00.325Z,556.8
2022-08-25T10:48:02.158Z,557
2022-08-25T10:49:03.809Z,557
2022-08-25T10:50:05.456Z,556.6
2022-08-25T10:51:07.229Z,557.5
2022-08-25T10:52:09.071Z,557.3
2022-08-25T10:53:13.050Z,557.4
2022-08-25T10:54:14.740Z,557.4
2022-08-25T10:55:16.858Z,557.2
2022-08-25T10:56:18.508Z,557.4
2022-08-25T10:57:21.264Z,557.1
2022-08-25T10:58:23.746Z,557.5
2022-08-25T10:59:29.927Z,557.5
2022-08-25T11:00:33.697Z,557.5
2022-08-25T11:01:46.772Z,557.7
2022-08-25T11:02:48.367Z,557.9
2022-08-25T11:03:51.695Z,557.6
2022-08-25T11:04:55.453Z,558.1
2022-08-25T11:05:57.179Z,558.4
2022-08-25T11:06:58.737Z,558.3
2022-08-25T11:08:00.442Z,558.6
2022-08-25T11:09:05.476Z,558.9
2022-08-25T11:10:07.334Z,559
2022-08-25T11:11:09.015Z,559
2022-08-25T11:12:10.656Z,558.9
2022-08-25T11:13:12.309Z,559.2
2022-08-25T11:14:14.055Z,559.3
2022-08-25T11:15:16.884Z,559.1
2022-08-25T11:16:20.341Z,559.2
2022-08-25T11:17:22.167Z,559.4
2022-08-25T11:18:24.934Z,559.9
2022-08-25T11:19:26.980Z,559.9
2022-08-25T11:20:30.399Z,559.9
2022-08-25T11:21:36.587Z,559.8
2022-08-25T11:22:38.445Z,559.8
2022-08-25T11:23:40.796Z,559.9
2022-08-25T11:24:42.466Z,560.4
2022-08-25T11:25:44.298Z,560.6
2022-08-25T11:26:46.468Z,560.7
2022-08-25T11:27:48.169Z,560.6
2022-08-25T11:28:49.853Z,560.6
2022-08-25T11:29:51.436Z,560.8
2022-08-25T11:30:54.097Z,561.2
2022-08-25T11:31:55.874Z,561.5
2022-08-25T11:33:01.957Z,561.2
2022-08-25T11:34:04.829Z,561.2
2022-08-25T11:35:06.376Z,561.4
2022-08-25T11:36:12.551Z,562.1
2022-08-25T11:37:14.645Z,561.8
2022-08-25T11:38:16.528Z,561.8
2022-08-25T11:39:18.931Z,561.7
2022-08-25T11:40:21.121Z,561.8
2022-08-25T11:41:23.086Z,562.1
2022-08-25T11:42:27.614Z,562
2022-08-25T11:43:40.793Z,561.7
2022-08-25T11:44:55.517Z,562.1
2022-08-25T11:45:57.562Z,562.1
2022-08-25T11:46:59.237Z,561.7
2022-08-25T11:48:02.353Z,561.7
2022-08-25T11:49:04.510Z,562
2022-08-25T11:50:07.872Z,562.2
2022-08-25T11:51:10.029Z,562.1
2022-08-25T11:52:12.102Z,562.1
2022-08-25T11:53:13.735Z,562.5
2022-08-25T11:54:15.399Z,562.7
2022-08-25T11:55:17.120Z,562.4
2022-08-25T11:56:26.662Z,562.9
2022-08-25T11:57:28.405Z,562.7
2022-08-25T11:58:31.788Z,562.8
2022-08-25T11:59:33.542Z,562.4
2022-08-25T12:00:35.316Z,563.3
2022-08-25T12:01:37.033Z,563.1
2022-08-25T12:02:38.889Z,563.7
2022-08-25T12:03:40.626Z,563.7
2022-08-25T12:04:46.227Z,563.2
2022-08-25T12:05:48.493Z,563.4
2022-08-25T12:06:53.815Z,563.4
2022-08-25T12:07:56.035Z,563.2
2022-08-25T12:08:58.343Z,563.2
2022-08-25T12:10:00.116Z,563.1
2022-08-25T12:11:11.052Z,562.9
2022-08-25T12:12:15.035Z,563.1
2022-08-25T12:13:16.768Z,563.1
2022-08-25T12:14:18.653Z,562.8
2022-08-25T12:15:20.335Z,563.2
2022-08-25T12:16:22.432Z,563.5
2022-08-25T12:17:24.271Z,563.1
2022-08-25T12:18:26.223Z,563.1
2022-08-25T12:19:30.029Z,563.2
2022-08-25T12:20:31.764Z,562.8
2022-08-25T12:21:33.539Z,562.8
2022-08-25T12:22:35.407Z,562.5
2022-08-25T12:23:45.830Z,562.5
2022-08-25T12:24:52.239Z,562.6
2022-08-25T12:25:54.045Z,563.2
2022-08-25T12:26:59.326Z,563
2022-08-25T12:28:01.634Z,563
2022-08-25T12:29:09.410Z,562.6
2022-08-25T12:30:21.699Z,562.7
2022-08-25T12:31:23.671Z,562.6
2022-08-25T12:32:27.887Z,562.6
2022-08-25T12:33:29.969Z,562.7
2022-08-25T12:34:31.748Z,562.4
2022-08-25T12:35:33.301Z,562.6
2022-08-25T12:36:34.910Z,563
2022-08-25T12:37:37.400Z,563.2
2022-08-25T12:38:52.578Z,563.7
2022-08-25T12:39:59.472Z,563.5
2022-08-25T12:41:01.157Z,563.4
2022-08-25T12:43:06.077Z,562.9
2022-08-25T12:44:11.859Z,563.3
2022-08-25T12:45:13.478Z,563.2
2022-08-25T12:46:15.705Z,562.6
2022-08-25T12:47:17.639Z,562.7
2022-08-25T12:48:19.678Z,562.9
2022-08-25T12:49:25.019Z,562.7
2022-08-25T12:50:26.747Z,563
2022-08-25T12:51:28.315Z,563.1
2022-08-25T12:52:30.001Z,562.8
2022-08-25T12:53:31.751Z,562.6
2022-08-25T12:54:33.598Z,562.9
2022-08-25T12:55:35.263Z,563.6
2022-08-25T12:56:40.118Z,563.1
2022-08-25T12:57:42.415Z,563.2
2022-08-25T12:59:01.746Z,562.9
2022-08-25T13:00:06.438Z,563.3
2022-08-25T13:01:36.921Z,562.8
2022-08-25T13:02:39.340Z,563
2022-08-25T13:04:44.082Z,563
2022-08-25T13:05:46.347Z,562.9
2022-08-25T13:06:48.118Z,563
2022-08-25T13:07:49.765Z,562.4
2022-08-25T13:08:52.166Z,562.5
2022-08-25T13:09:53.864Z,562.5
2022-08-25T13:10:55.510Z,562.7
2022-08-25T13:11:57.195Z,562.4
2022-08-25T13:12:58.940Z,562.8
2022-08-25T13:14:02.049Z,562.6
2022-08-25T13:15:05.545Z,562.8
2022-08-25T13:16:08.024Z,562.6
2022-08-25T13:17:10.468Z,562.6
2022-08-25T13:18:12.134Z,563.2
2022-08-25T13:19:18.961Z,563.2
2022-08-25T13:20:20.549Z,562.7
2022-08-25T13:21:22.121Z,562.9
2022-08-25T13:22:24.160Z,562.8
2022-08-25T13:23:30.556Z,563.1
2022-08-25T13:24:41.748Z,563.5
2022-08-25T13:25:43.429Z,563.2
2022-08-25T13:26:49.334Z,563
2022-08-25T13:27:52.238Z,562.9
2022-08-25T13:28:54.658Z,562.9
2022-08-25T13:29:56.508Z,562.9
2022-08-25T13:30:58.173Z,562.9
2022-08-25T13:32:02.160Z,563.5
2022-08-25T13:33:11.208Z,562.8
2022-08-25T13:34:20.669Z,563.6
2022-08-25T13:35:22.920Z,563.4
2022-08-25T13:36:28.396Z,563.3
2022-08-25T13:37:31.989Z,563.4